createdAt,value
2019-01-10T00:00:10.087Z,98.11
2019-01-10T00:01:10.034Z,98.74
2019-01-10T00:02:10.066Z,98.84
2019-01-10T00:03:10.001Z,98.84
2019-01-10T00:04:10.001Z,98.63
2019-01-10T00:05:10.079Z,98.74
2019-01-10T00:06:09.958Z,98.63
2019-01-10T00:07:09.943Z,98.43
2019-01-10T00:08:09.941Z,98.11
2019-01-10T00:09:09.924Z,98.43
2019-01-10T00:10:09.939Z,98.53
2019-01-10T00:11:09.908Z,98.88
2019-01-10T00:12:09.898Z,98.32
2019-01-10T00:13:09.887Z,98.88
2019-01-10T00:14:09.875Z,98.53
2019-01-10T00:15:09.882Z,98.84
2019-01-10T00:16:09.848Z,98.43
2019-01-10T00:17:09.837Z,98.57
2019-01-10T00:18:09.826Z,98.01
2019-01-10T00:19:09.823Z,98.36
2019-01-10T00:20:09.831Z,97.95
2019-01-10T00:21:09.803Z,97.95
2019-01-10T00:22:09.790Z,98.47
2019-01-10T00:23:09.767Z,98.16
2019-01-10T00:24:09.773Z,97.43
2019-01-10T00:25:09.757Z,97.85
2019-01-10T00:26:09.759Z,97.53
2019-01-10T00:27:09.730Z,98.05
2019-01-10T00:28:09.713Z,97.95
2019-01-10T00:29:09.700Z,97.95
2019-01-10T00:30:09.693Z,97.85
2019-01-10T00:31:09.717Z,97.74
2019-01-10T00:32:09.668Z,98.68
2019-01-10T00:33:09.663Z,98.68
2019-01-10T00:34:09.646Z,98.68
2019-01-10T00:35:09.713Z,98.16
2019-01-10T00:36:09.643Z,98.36
2019-01-10T00:37:09.614Z,98.78
2019-01-10T00:38:09.605Z,98.05
2019-01-10T00:39:09.596Z,97.85
2019-01-10T00:40:09.582Z,97.85
2019-01-10T00:41:09.592Z,97.43
2019-01-10T00:42:09.567Z,97.47
2019-01-10T00:43:09.547Z,97.85
2019-01-10T00:44:09.536Z,97.43
2019-01-10T00:45:09.529Z,97.89
2019-01-10T00:46:09.548Z,97.53
2019-01-10T00:47:09.513Z,97.68
2019-01-10T00:48:09.500Z,97.64
2019-01-10T00:49:09.487Z,97.22
2019-01-10T00:50:09.466Z,97.89
2019-01-10T00:51:09.603Z,96.91
2019-01-10T00:52:09.454Z,96.18
2019-01-10T00:53:09.434Z,96.59
2019-01-10T00:54:09.428Z,96.85
2019-01-10T00:55:09.444Z,96.64
2019-01-10T00:56:09.429Z,96.85
2019-01-10T00:57:09.394Z,96.75
2019-01-10T00:58:09.373Z,96.64
2019-01-10T00:59:09.366Z,96.22
2019-01-10T01:00:09.358Z,96.43
2019-01-10T01:01:09.370Z,96.01
2019-01-10T01:02:09.331Z,96.64
2019-01-10T01:03:09.323Z,96.33
2019-01-10T01:04:09.315Z,96.53
2019-01-10T01:05:09.299Z,96.64
2019-01-10T01:06:09.313Z,96.33
2019-01-10T01:07:09.283Z,96.22
2019-01-10T01:08:09.338Z,96.64
2019-01-10T01:09:09.258Z,96.64
2019-01-10T01:10:09.245Z,96.95
2019-01-10T01:11:09.236Z,96.75
2019-01-10T01:12:09.244Z,96.53
2019-01-10T01:13:09.222Z,96.01
2019-01-10T01:14:09.202Z,96.01
2019-01-10T01:15:09.194Z,95.60
2019-01-10T01:16:09.181Z,96.53
2019-01-10T01:17:09.185Z,95.29
2019-01-10T01:18:09.157Z,96.53
2019-01-10T01:19:09.150Z,96.12
2019-01-10T01:20:09.135Z,95.70
2019-01-10T01:21:09.134Z,95.60
2019-01-10T01:22:09.124Z,95.87
2019-01-10T01:23:09.100Z,95.50
2019-01-10T01:24:09.093Z,96.43
2019-01-10T01:25:09.081Z,96.12
2019-01-10T01:26:09.067Z,95.18
2019-01-10T01:27:09.070Z,95.56
2019-01-10T01:28:09.044Z,96.33
2019-01-10T01:29:09.032Z,96.28
2019-01-10T01:30:09.027Z,95.45
2019-01-10T01:31:09.011Z,94.87
2019-01-10T01:32:09.014Z,95.25
2019-01-10T01:33:08.987Z,95.14
2019-01-10T01:34:08.982Z,95.18
2019-01-10T01:35:09.003Z,96.33
2019-01-10T01:36:08.958Z,95.97
2019-01-10T01:37:09.055Z,95.25
2019-01-10T01:38:08.955Z,95.25
2019-01-10T01:39:08.924Z,95.60
2019-01-10T01:40:08.918Z,95.66
2019-01-10T01:41:08.903Z,95.25
2019-01-10T01:42:08.888Z,95.14
2019-01-10T01:43:08.918Z,95.70
2019-01-10T01:44:08.922Z,95.91
2019-01-10T01:45:08.861Z,95.18
2019-01-10T01:46:08.846Z,95.35
2019-01-10T01:47:08.838Z,95.56
2019-01-10T01:48:08.872Z,95.29
2019-01-10T01:49:08.814Z,95.14
2019-01-10T01:50:08.802Z,95.39
2019-01-10T01:51:08.801Z,94.98
2019-01-10T01:52:08.887Z,95.03
2019-01-10T01:53:08.788Z,95.60
2019-01-10T01:54:08.753Z,95.56
2019-01-10T01:55:08.747Z,94.98
2019-01-10T01:56:08.736Z,95.18
2019-01-10T01:57:08.726Z,95.50
2019-01-10T01:58:08.738Z,95.70
2019-01-10T01:59:08.701Z,96.08
2019-01-10T02:00:08.696Z,96.08
2019-01-10T02:01:08.675Z,96.33
2019-01-10T02:02:08.669Z,95.50
2019-01-10T02:03:08.676Z,96.53
2019-01-10T02:04:08.650Z,96.22
2019-01-10T02:05:08.631Z,95.81
2019-01-10T02:06:08.620Z,95.97
2019-01-10T02:07:08.613Z,96.01
2019-01-10T02:08:08.616Z,95.70
2019-01-10T02:09:08.588Z,95.60
2019-01-10T02:10:08.603Z,96.22
2019-01-10T02:11:08.564Z,96.01
2019-01-10T02:12:08.553Z,96.28
2019-01-10T02:13:16.524Z,96.01
2019-01-10T02:14:09.530Z,96.53
2019-01-10T02:15:08.521Z,96.12
2019-01-10T02:16:08.512Z,96.01
2019-01-10T02:17:08.502Z,96.53
2019-01-10T02:18:08.506Z,96.43
2019-01-10T02:19:08.476Z,96.43
2019-01-10T02:20:08.473Z,96.43
2019-01-10T02:21:08.457Z,96.53
2019-01-10T02:22:08.442Z,96.22
2019-01-10T02:23:08.462Z,96.64
2019-01-10T02:24:08.420Z,96.53
2019-01-10T02:25:08.406Z,96.85
2019-01-10T02:26:08.401Z,96.43
2019-01-10T02:27:08.394Z,96.53
2019-01-10T02:28:08.391Z,96.43
2019-01-10T02:29:08.359Z,96.85
2019-01-10T02:30:08.350Z,96.64
2019-01-10T02:31:08.354Z,96.53
2019-01-10T02:32:08.330Z,96.48
2019-01-10T02:33:08.349Z,96.48
2019-01-10T02:34:08.309Z,96.22
2019-01-10T02:35:08.312Z,96.48
2019-01-10T02:36:08.297Z,96.58
2019-01-10T02:37:08.279Z,96.89
2019-01-10T02:38:08.272Z,97.00
2019-01-10T02:39:08.277Z,97.00
2019-01-10T02:40:08.247Z,96.95
2019-01-10T02:41:08.250Z,97.27
2019-01-10T02:42:08.228Z,96.79
2019-01-10T02:43:08.215Z,96.85
2019-01-10T02:44:08.217Z,97.27
2019-01-10T02:45:08.187Z,96.79
2019-01-10T02:46:08.175Z,96.53
2019-01-10T02:47:08.164Z,96.33
2019-01-10T02:48:08.154Z,96.43
2019-01-10T02:49:08.160Z,96.64
2019-01-10T02:50:08.128Z,96.37
2019-01-10T02:51:08.128Z,96.69
2019-01-10T02:52:08.113Z,96.53
2019-01-10T02:53:08.093Z,96.43
2019-01-10T02:54:08.102Z,96.53
2019-01-10T02:55:08.073Z,96.22
2019-01-10T02:56:08.064Z,96.43
2019-01-10T02:57:08.054Z,96.64
2019-01-10T02:58:08.042Z,96.69
2019-01-10T02:59:08.068Z,96.43
2019-01-10T03:00:08.019Z,96.64
2019-01-10T03:01:08.019Z,96.12
2019-01-10T03:02:08.000Z,96.01
2019-01-10T03:03:07.987Z,96.12
2019-01-10T03:04:08.016Z,96.43
2019-01-10T03:05:07.965Z,95.29
2019-01-10T03:06:07.955Z,95.43
2019-01-10T03:07:07.953Z,94.70
2019-01-10T03:08:07.974Z,95.29
2019-01-10T03:09:07.956Z,94.66
2019-01-10T03:10:07.921Z,94.49
2019-01-10T03:11:07.903Z,94.45
2019-01-10T03:12:07.891Z,94.04
2019-01-10T03:13:07.878Z,93.31
2019-01-10T03:14:07.867Z,94.04
2019-01-10T03:15:07.876Z,93.41
2019-01-10T03:16:07.847Z,93.20
2019-01-10T03:17:07.838Z,93.77
2019-01-10T03:18:07.823Z,93.83
2019-01-10T03:19:07.813Z,93.41
2019-01-10T03:20:07.825Z,93.10
2019-01-10T03:21:07.786Z,93.62
2019-01-10T03:22:07.776Z,93.41
2019-01-10T03:23:07.767Z,93.66
2019-01-10T03:24:07.891Z,93.20
2019-01-10T03:25:07.759Z,93.62
2019-01-10T03:26:07.733Z,93.46
2019-01-10T03:27:07.722Z,93.20
2019-01-10T03:28:07.706Z,92.47
2019-01-10T03:29:07.705Z,92.47
2019-01-10T03:30:07.717Z,92.47
2019-01-10T03:31:07.681Z,92.79
2019-01-10T03:32:07.667Z,92.58
2019-01-10T03:33:07.659Z,92.99
2019-01-10T03:34:07.645Z,92.37
2019-01-10T03:35:07.655Z,92.16
2019-01-10T03:36:07.624Z,92.37
2019-01-10T03:37:07.614Z,92.47
2019-01-10T03:38:07.599Z,92.58
2019-01-10T03:39:07.589Z,91.85
2019-01-10T03:40:07.597Z,91.89
2019-01-10T03:41:07.566Z,92.16
2019-01-10T03:42:07.554Z,92.27
2019-01-10T03:43:07.541Z,92.27
2019-01-10T03:44:07.534Z,91.43
2019-01-10T03:45:07.553Z,91.75
2019-01-10T03:46:07.509Z,91.85
2019-01-10T03:47:07.514Z,91.75
2019-01-10T03:48:07.500Z,91.53
2019-01-10T03:49:07.486Z,91.96
2019-01-10T03:50:07.465Z,91.96
2019-01-10T03:51:07.486Z,91.78
2019-01-10T03:52:07.443Z,91.06
2019-01-10T03:53:07.435Z,91.96
2019-01-10T03:54:07.420Z,90.95
2019-01-10T03:55:07.403Z,90.75
2019-01-10T03:56:07.432Z,90.85
2019-01-10T03:57:07.385Z,91.02
2019-01-10T03:58:07.381Z,91.78
2019-01-10T03:59:07.368Z,91.64
2019-01-10T04:00:07.364Z,91.78
2019-01-10T04:01:07.366Z,91.64
2019-01-10T04:02:07.337Z,91.22
2019-01-10T04:03:07.327Z,91.85
2019-01-10T04:04:07.312Z,91.78
2019-01-10T04:05:07.297Z,91.33
2019-01-10T04:06:07.305Z,91.53
2019-01-10T04:07:07.280Z,91.89
2019-01-10T04:08:07.259Z,91.64
2019-01-10T04:09:07.258Z,91.58
2019-01-10T04:10:07.249Z,91.68
2019-01-10T04:11:07.249Z,91.47
2019-01-10T04:12:07.225Z,91.27
2019-01-10T04:13:07.207Z,90.85
2019-01-10T04:14:07.207Z,91.78
2019-01-10T04:15:07.188Z,91.89
2019-01-10T04:16:07.192Z,91.58
2019-01-10T04:17:07.162Z,91.58
2019-01-10T04:18:07.156Z,91.58
2019-01-10T04:19:07.144Z,91.47
2019-01-10T04:20:07.130Z,91.85
2019-01-10T04:21:16.674Z,91.06
2019-01-10T04:22:08.107Z,90.75
2019-01-10T04:23:07.155Z,90.85
2019-01-10T04:24:07.091Z,90.75
2019-01-10T04:25:07.076Z,90.95
2019-01-10T04:26:07.186Z,90.75
2019-01-10T04:27:07.052Z,90.44
2019-01-10T04:28:07.051Z,90.95
2019-01-10T04:29:07.040Z,90.85
2019-01-10T04:30:07.022Z,90.54
2019-01-10T04:31:07.028Z,90.33
2019-01-10T04:32:06.998Z,90.44
2019-01-10T04:33:06.986Z,90.44
2019-01-10T04:34:06.973Z,90.75
2019-01-10T04:35:06.968Z,90.70
2019-01-10T04:36:06.981Z,91.02
2019-01-10T04:37:06.955Z,90.44
2019-01-10T04:38:06.933Z,90.95
2019-01-10T04:39:06.927Z,91.06
2019-01-10T04:40:06.913Z,90.85
2019-01-10T04:41:06.893Z,90.60
2019-01-10T04:42:06.912Z,90.85
2019-01-10T04:43:06.873Z,90.33
2019-01-10T04:44:07.501Z,91.16
2019-01-10T04:45:06.866Z,90.81
2019-01-10T04:46:06.838Z,90.54
2019-01-10T04:47:06.848Z,90.75
2019-01-10T04:48:06.822Z,90.85
2019-01-10T04:49:06.944Z,90.75
2019-01-10T04:50:06.798Z,91.06
2019-01-10T04:51:06.782Z,91.78
2019-01-10T04:52:06.795Z,91.27
2019-01-10T04:53:06.759Z,91.89
2019-01-10T04:54:06.747Z,91.27
2019-01-10T04:55:06.746Z,90.85
2019-01-10T04:56:06.735Z,90.95
2019-01-10T04:57:06.747Z,90.75
2019-01-10T04:58:06.702Z,90.75
2019-01-10T04:59:06.694Z,91.68
2019-01-10T05:00:06.683Z,90.85
2019-01-10T05:01:06.673Z,91.68
2019-01-10T05:02:06.678Z,91.06
2019-01-10T05:03:06.653Z,90.85
2019-01-10T05:04:06.638Z,91.16
2019-01-10T05:05:06.626Z,91.58
2019-01-10T05:06:06.612Z,91.72
2019-01-10T05:07:06.636Z,91.62
2019-01-10T05:08:06.595Z,91.41
2019-01-10T05:09:06.593Z,91.83
2019-01-10T05:10:06.571Z,92.03
2019-01-10T05:11:06.563Z,92.46
2019-01-10T05:12:06.570Z,92.03
2019-01-10T05:13:06.536Z,92.25
2019-01-10T05:14:06.548Z,92.56
2019-01-10T05:15:06.517Z,92.56
2019-01-10T05:16:06.519Z,92.46
2019-01-10T05:17:06.523Z,92.46
2019-01-10T05:18:08.137Z,92.77
2019-01-10T05:19:06.475Z,93.40
2019-01-10T05:20:06.462Z,93.60
2019-01-10T05:21:06.450Z,94.23
2019-01-10T05:22:06.439Z,94.02
2019-01-10T05:23:06.448Z,94.12
2019-01-10T05:24:06.420Z,94.64
2019-01-10T05:25:06.404Z,94.96
2019-01-10T05:26:06.397Z,94.12
2019-01-10T05:27:06.391Z,93.60
2019-01-10T05:28:06.389Z,94.12
2019-01-10T05:29:06.364Z,94.33
2019-01-10T05:30:06.353Z,94.75
2019-01-10T05:31:06.340Z,94.64
2019-01-10T05:32:06.329Z,93.60
2019-01-10T05:33:06.333Z,93.60
2019-01-10T05:34:06.309Z,93.60
2019-01-10T05:35:06.295Z,93.29
2019-01-10T05:36:06.288Z,93.50
2019-01-10T05:37:06.282Z,93.40
2019-01-10T05:38:06.286Z,93.29
2019-01-10T05:39:06.248Z,92.35
2019-01-10T05:40:06.236Z,93.91
2019-01-10T05:41:06.234Z,93.71
2019-01-10T05:42:06.218Z,93.18
2019-01-10T05:43:06.229Z,93.71
2019-01-10T05:44:06.198Z,92.97
2019-01-10T05:45:06.184Z,92.66
2019-01-10T05:46:06.172Z,93.29
2019-01-10T05:47:06.159Z,93.08
2019-01-10T05:48:06.171Z,92.87
2019-01-10T05:49:06.143Z,92.66
2019-01-10T05:50:06.128Z,92.35
2019-01-10T05:51:06.120Z,92.40
2019-01-10T05:52:06.115Z,92.56
2019-01-10T05:53:06.110Z,92.35
2019-01-10T05:54:06.086Z,92.56
2019-01-10T05:55:06.069Z,92.66
2019-01-10T05:56:15.071Z,92.03
2019-01-10T05:57:07.051Z,92.25
2019-01-10T05:58:06.074Z,91.62
2019-01-10T05:59:06.028Z,92.29
2019-01-10T06:00:06.016Z,92.18
2019-01-10T06:01:06.017Z,92.08
2019-01-10T06:02:06.000Z,92.29
2019-01-10T06:03:06.007Z,91.97
2019-01-10T06:04:05.970Z,92.08
2019-01-10T06:05:05.962Z,92.40
2019-01-10T06:06:05.949Z,92.50
2019-01-10T06:07:05.944Z,93.02
2019-01-10T06:08:05.946Z,93.02
2019-01-10T06:09:05.915Z,92.71
2019-01-10T06:10:05.905Z,92.50
2019-01-10T06:11:05.896Z,92.40
2019-01-10T06:12:05.884Z,91.97
2019-01-10T06:13:05.925Z,91.97
2019-01-10T06:14:05.870Z,91.87
2019-01-10T06:15:05.853Z,91.97
2019-01-10T06:16:05.844Z,91.87
2019-01-10T06:17:05.825Z,91.77
2019-01-10T06:18:05.827Z,91.83
2019-01-10T06:19:05.818Z,91.87
2019-01-10T06:20:05.796Z,92.60
2019-01-10T06:21:05.786Z,92.60
2019-01-10T06:22:05.769Z,92.91
2019-01-10T06:23:05.759Z,93.33
2019-01-10T06:24:05.767Z,93.96
2019-01-10T06:25:05.735Z,93.96
2019-01-10T06:26:05.733Z,93.33
2019-01-10T06:27:05.717Z,93.54
2019-01-10T06:28:05.716Z,95.10
2019-01-10T06:29:05.714Z,94.48
2019-01-10T06:30:05.679Z,93.75
2019-01-10T06:31:05.674Z,94.48
2019-01-10T06:32:05.656Z,94.52
2019-01-10T06:33:05.650Z,94.52
2019-01-10T06:34:06.564Z,94.63
2019-01-10T06:35:05.633Z,94.31
2019-01-10T06:36:05.623Z,95.31
2019-01-10T06:37:05.607Z,95.25
2019-01-10T06:38:05.592Z,95.56
2019-01-10T06:39:05.598Z,94.52
2019-01-10T06:40:05.573Z,94.79
2019-01-10T06:41:05.557Z,94.84
2019-01-10T06:42:05.596Z,94.17
2019-01-10T06:43:05.535Z,94.00
2019-01-10T06:44:05.539Z,94.42
2019-01-10T06:45:05.518Z,94.00
2019-01-10T06:46:05.502Z,93.85
2019-01-10T06:47:05.489Z,92.75
2019-01-10T06:48:05.481Z,92.71
2019-01-10T06:49:05.502Z,92.54
2019-01-10T06:50:05.466Z,92.60
2019-01-10T06:51:05.450Z,92.71
2019-01-10T06:52:05.446Z,92.96
2019-01-10T06:53:05.430Z,92.50
2019-01-10T06:54:05.420Z,92.71
2019-01-10T06:55:05.432Z,93.16
2019-01-10T06:56:05.394Z,92.81
2019-01-10T06:57:05.381Z,92.81
2019-01-10T06:58:05.369Z,91.97
2019-01-10T06:59:05.359Z,92.91
2019-01-10T07:00:05.383Z,91.87
2019-01-10T07:01:05.335Z,92.18
2019-01-10T07:02:06.962Z,91.87
2019-01-10T07:03:05.315Z,92.54
2019-01-10T07:04:05.341Z,91.81
2019-01-10T07:05:05.363Z,91.66
2019-01-10T07:06:05.281Z,91.71
2019-01-10T07:07:05.281Z,91.81
2019-01-10T07:08:05.260Z,91.60
2019-01-10T07:09:05.250Z,91.91
2019-01-10T07:10:05.259Z,91.25
2019-01-10T07:11:05.225Z,91.08
2019-01-10T07:12:05.277Z,90.00
2019-01-10T07:13:05.199Z,90.72
2019-01-10T07:14:05.200Z,90.56
2019-01-10T07:15:05.211Z,90.03
2019-01-10T07:16:05.172Z,90.25
2019-01-10T07:17:05.158Z,90.35
2019-01-10T07:18:05.148Z,90.25
2019-01-10T07:19:05.142Z,90.66
2019-01-10T07:20:05.147Z,90.41
2019-01-10T07:21:05.117Z,90.31
2019-01-10T07:22:05.109Z,90.10
2019-01-10T07:23:05.099Z,90.00
2019-01-10T07:24:05.082Z,90.31
2019-01-10T07:25:05.090Z,89.78
2019-01-10T07:26:05.064Z,89.68
2019-01-10T07:27:05.048Z,89.16
2019-01-10T07:28:05.042Z,89.72
2019-01-10T07:29:05.032Z,90.10
2019-01-10T07:30:05.046Z,89.37
2019-01-10T07:31:05.006Z,90.03
2019-01-10T07:32:04.991Z,89.51
2019-01-10T07:33:04.983Z,90.03
2019-01-10T07:34:04.981Z,89.62
2019-01-10T07:35:04.980Z,89.37
2019-01-10T07:36:04.958Z,89.41
2019-01-10T07:37:12.572Z,90.03
2019-01-10T07:38:05.926Z,90.14
2019-01-10T07:39:04.926Z,89.83
2019-01-10T07:40:04.931Z,90.10
2019-01-10T07:41:04.909Z,89.51
2019-01-10T07:42:04.892Z,89.47
2019-01-10T07:43:04.877Z,89.51
2019-01-10T07:44:04.861Z,89.62
2019-01-10T07:45:04.858Z,89.51
2019-01-10T07:46:04.865Z,89.37
2019-01-10T07:47:04.836Z,89.51
2019-01-10T07:48:04.837Z,89.78
2019-01-10T07:49:04.807Z,87.91
2019-01-10T07:50:04.791Z,87.91
2019-01-10T07:51:04.800Z,88.22
2019-01-10T07:52:04.776Z,88.26
2019-01-10T07:53:04.766Z,88.16
2019-01-10T07:54:04.871Z,88.47
2019-01-10T07:55:04.749Z,88.01
2019-01-10T07:56:04.758Z,88.53
2019-01-10T07:57:04.721Z,88.01
2019-01-10T07:58:04.708Z,87.22
2019-01-10T07:59:04.694Z,87.18
2019-01-10T08:00:04.687Z,86.76
2019-01-10T08:01:04.686Z,87.12
2019-01-10T08:02:04.671Z,87.91
2019-01-10T08:03:04.648Z,87.60
2019-01-10T08:04:04.637Z,87.18
2019-01-10T08:05:04.632Z,86.97
2019-01-10T08:06:04.794Z,87.70
2019-01-10T08:07:04.602Z,87.70
2019-01-10T08:08:04.590Z,88.12
2019-01-10T08:09:04.588Z,87.81
2019-01-10T08:10:04.568Z,87.97
2019-01-10T08:11:04.576Z,88.01
2019-01-10T08:12:04.548Z,86.45
2019-01-10T08:13:04.539Z,86.45
2019-01-10T08:14:04.525Z,86.45
2019-01-10T08:15:11.759Z,86.76
2019-01-10T08:16:05.521Z,86.55
2019-01-10T08:17:04.498Z,86.45
2019-01-10T08:18:04.483Z,86.24
2019-01-10T08:19:04.479Z,86.35
2019-01-10T08:20:04.476Z,86.35
2019-01-10T08:21:04.470Z,86.24
2019-01-10T08:22:04.718Z,86.10
2019-01-10T08:23:04.435Z,85.05
2019-01-10T08:24:04.416Z,85.30
2019-01-10T08:25:04.406Z,86.45
2019-01-10T08:26:04.438Z,86.45
2019-01-10T08:27:04.409Z,86.45
2019-01-10T08:28:04.371Z,86.13
2019-01-10T08:29:04.358Z,85.61
2019-01-10T08:30:04.352Z,85.10
2019-01-10T08:31:04.339Z,85.41
2019-01-10T08:32:04.437Z,84.99
2019-01-10T08:33:04.314Z,85.41
2019-01-10T08:34:04.308Z,84.99
2019-01-10T08:35:04.291Z,85.30
2019-01-10T08:36:04.292Z,84.99
2019-01-10T08:37:04.285Z,85.30
2019-01-10T08:38:04.258Z,85.41
2019-01-10T08:39:04.257Z,85.30
2019-01-10T08:40:04.249Z,85.30
2019-01-10T08:41:04.227Z,84.78
2019-01-10T08:42:04.232Z,85.41
2019-01-10T08:43:04.201Z,84.67
2019-01-10T08:44:04.197Z,85.36
2019-01-10T08:45:04.193Z,85.05
2019-01-10T08:46:04.171Z,84.84
2019-01-10T08:47:04.265Z,84.84
2019-01-10T08:48:04.147Z,84.95
2019-01-10T08:49:04.138Z,85.30
2019-01-10T08:50:04.124Z,86.03
2019-01-10T08:51:04.123Z,86.76
2019-01-10T08:52:04.124Z,87.07
2019-01-10T08:53:04.094Z,87.28
2019-01-10T08:54:04.080Z,88.01
2019-01-10T08:55:04.076Z,88.01
2019-01-10T08:56:04.073Z,87.18
2019-01-10T08:57:04.077Z,86.03
2019-01-10T08:58:04.036Z,85.20
2019-01-10T08:59:04.039Z,86.35
2019-01-10T09:00:04.020Z,86.03
2019-01-10T09:01:04.004Z,85.41
2019-01-10T09:02:04.022Z,85.20
2019-01-10T09:03:03.988Z,85.82
2019-01-10T09:04:04.011Z,84.36
2019-01-10T09:05:03.955Z,82.97
2019-01-10T09:06:08.275Z,83.32
2019-01-10T09:07:03.941Z,84.05
2019-01-10T09:08:03.974Z,83.91
2019-01-10T09:09:03.911Z,83.80
2019-01-10T09:10:03.944Z,83.91
2019-01-10T09:11:03.889Z,83.70
2019-01-10T09:12:03.881Z,83.39
2019-01-10T09:13:03.897Z,82.97
2019-01-10T09:14:04.813Z,82.93
2019-01-10T09:15:03.847Z,82.82
2019-01-10T09:16:03.830Z,83.04
2019-01-10T09:17:03.829Z,83.45
2019-01-10T09:18:03.836Z,83.14
2019-01-10T09:19:03.811Z,83.56
2019-01-10T09:20:03.791Z,83.56
2019-01-10T09:21:04.337Z,83.45
2019-01-10T09:22:03.775Z,82.72
2019-01-10T09:23:03.776Z,82.72
2019-01-10T09:24:03.745Z,82.72
2019-01-10T09:25:03.733Z,83.04
2019-01-10T09:26:03.723Z,82.20
2019-01-10T09:27:03.723Z,81.79
2019-01-10T09:28:03.729Z,82.20
2019-01-10T09:29:03.695Z,81.47
2019-01-10T09:30:03.690Z,81.58
2019-01-10T09:31:03.674Z,81.68
2019-01-10T09:32:03.663Z,81.05
2019-01-10T09:33:03.661Z,81.26
2019-01-10T09:34:03.642Z,81.89
2019-01-10T09:35:03.629Z,82.45
2019-01-10T09:36:03.618Z,82.76
2019-01-10T09:37:03.948Z,83.35
2019-01-10T09:38:03.610Z,83.18
2019-01-10T09:39:03.580Z,83.39
2019-01-10T09:40:03.564Z,82.72
2019-01-10T09:41:03.559Z,82.55
2019-01-10T09:42:03.555Z,82.82
2019-01-10T09:43:03.556Z,82.93
2019-01-10T09:44:03.522Z,82.72
2019-01-10T09:45:03.515Z,82.51
2019-01-10T09:46:03.508Z,82.20
2019-01-10T09:47:03.552Z,81.93
2019-01-10T09:48:03.510Z,82.62
2019-01-10T09:49:03.467Z,82.24
2019-01-10T09:50:03.462Z,81.93
2019-01-10T09:51:03.459Z,81.99
2019-01-10T09:52:03.443Z,81.89
2019-01-10T09:53:03.421Z,81.68
2019-01-10T09:54:03.429Z,81.58
2019-01-10T09:55:03.403Z,81.51
2019-01-10T09:56:03.390Z,82.20
2019-01-10T09:57:03.378Z,82.10
2019-01-10T09:58:03.370Z,81.72
2019-01-10T09:59:03.390Z,81.41
2019-01-10T10:00:03.351Z,81.89
2019-01-10T10:01:03.339Z,81.99
2019-01-10T10:02:03.326Z,82.10
2019-01-10T10:03:03.332Z,81.37
2019-01-10T10:04:03.322Z,81.58
2019-01-10T10:05:03.295Z,81.16
2019-01-10T10:06:07.878Z,79.60
2019-01-10T10:07:03.267Z,79.39
2019-01-10T10:08:03.258Z,79.49
2019-01-10T10:09:03.271Z,79.49
2019-01-10T10:10:03.235Z,79.49
2019-01-10T10:11:03.252Z,80.74
2019-01-10T10:12:03.224Z,80.54
2019-01-10T10:13:03.205Z,80.54
2019-01-10T10:14:03.237Z,80.43
2019-01-10T10:15:03.183Z,79.91
2019-01-10T10:16:03.191Z,80.64
2019-01-10T10:17:03.164Z,80.95
2019-01-10T10:18:03.147Z,80.64
2019-01-10T10:19:03.166Z,80.22
2019-01-10T10:20:03.137Z,80.43
2019-01-10T10:21:03.114Z,80.02
2019-01-10T10:22:03.110Z,80.50
2019-01-10T10:23:03.099Z,80.33
2019-01-10T10:24:03.103Z,80.74
2019-01-10T10:25:03.074Z,79.80
2019-01-10T10:26:03.086Z,80.95
2019-01-10T10:27:03.046Z,81.02
2019-01-10T10:28:03.038Z,80.85
2019-01-10T10:29:03.244Z,79.77
2019-01-10T10:30:03.017Z,79.94
2019-01-10T10:31:03.002Z,79.00
2019-01-10T10:32:02.993Z,79.00
2019-01-10T10:33:02.978Z,78.17
2019-01-10T10:34:02.987Z,77.30
2019-01-10T10:35:02.966Z,76.92
2019-01-10T10:36:02.954Z,76.82
2019-01-10T10:37:02.941Z,76.89
2019-01-10T10:38:02.926Z,76.89
2019-01-10T10:39:02.912Z,76.99
2019-01-10T10:40:02.913Z,77.40
2019-01-10T10:41:02.889Z,76.23
2019-01-10T10:42:02.893Z,75.88
2019-01-10T10:43:02.865Z,75.26
2019-01-10T10:44:02.870Z,76.23
2019-01-10T10:45:02.857Z,76.12
2019-01-10T10:46:02.835Z,75.40
2019-01-10T10:47:02.873Z,74.98
2019-01-10T10:48:02.998Z,74.43
2019-01-10T10:49:02.801Z,74.39
2019-01-10T10:50:02.805Z,74.46
2019-01-10T10:51:02.787Z,70.73
2019-01-10T10:52:02.768Z,70.17
2019-01-10T10:53:02.748Z,70.38
2019-01-10T10:54:02.740Z,70.46
2019-01-10T10:55:02.755Z,68.98
2019-01-10T10:56:02.719Z,66.15
2019-01-10T10:57:02.710Z,67.55
2019-01-10T10:58:02.695Z,66.80
2019-01-10T10:59:02.691Z,66.56
2019-01-10T11:00:02.692Z,64.30
2019-01-10T11:01:02.694Z,59.86
2019-01-10T11:02:02.655Z,55.64
2019-01-10T11:03:02.641Z,55.51
2019-01-10T11:04:02.666Z,52.33
2019-01-10T11:05:02.652Z,51.03
2019-01-10T11:06:02.619Z,50.39
2019-01-10T11:07:02.604Z,47.64
2019-01-10T11:08:02.585Z,46.80
2019-01-10T11:09:09.019Z,46.84
2019-01-10T11:10:03.574Z,49.31
2019-01-10T11:11:02.549Z,47.89
2019-01-10T11:12:02.537Z,46.49
2019-01-10T11:13:02.526Z,47.60
2019-01-10T11:14:02.516Z,46.31
2019-01-10T11:15:02.544Z,46.39
2019-01-10T11:16:10.252Z,50.12
2019-01-10T11:17:03.479Z,52.99
2019-01-10T11:18:02.469Z,54.69
2019-01-10T11:19:02.457Z,57.03
2019-01-10T11:20:02.507Z,60.31
2019-01-10T11:21:02.442Z,62.13
2019-01-10T11:22:02.434Z,62.91
2019-01-10T11:23:10.522Z,64.07
2019-01-10T11:24:03.402Z,64.83
2019-01-10T11:25:02.427Z,64.62
2019-01-10T11:26:02.377Z,64.79
2019-01-10T11:27:02.369Z,65.10
2019-01-10T11:28:02.356Z,64.49
2019-01-10T11:29:02.346Z,61.69
2019-01-10T11:30:02.808Z,60.89
2019-01-10T11:31:02.325Z,62.94
2019-01-10T11:32:02.318Z,65.07
2019-01-10T11:33:02.301Z,66.03
2019-01-10T11:34:02.292Z,67.30
2019-01-10T11:35:02.296Z,67.30
2019-01-10T11:36:02.264Z,67.24
2019-01-10T11:37:02.254Z,67.20
2019-01-10T11:38:02.263Z,67.30
2019-01-10T11:39:02.236Z,67.41
2019-01-10T11:40:02.233Z,66.96
2019-01-10T11:41:02.231Z,65.77
2019-01-10T11:42:02.199Z,64.07
2019-01-10T11:43:02.204Z,63.40
2019-01-10T11:44:02.176Z,63.56
2019-01-10T11:45:02.166Z,64.00
2019-01-10T11:46:02.185Z,63.41
2019-01-10T11:47:02.152Z,64.92
2019-01-10T11:48:02.128Z,66.17
2019-01-10T11:49:02.121Z,66.55
2019-01-10T11:50:02.114Z,65.62
2019-01-10T11:51:02.129Z,66.14
2019-01-10T11:52:02.094Z,66.41
2019-01-10T11:53:02.073Z,64.76
2019-01-10T11:54:02.062Z,65.72
2019-01-10T11:55:02.062Z,65.83
2019-01-10T11:56:02.061Z,66.27
2019-01-10T11:57:02.036Z,67.24
2019-01-10T11:58:02.020Z,67.47
2019-01-10T11:59:02.013Z,67.92
2019-01-10T12:00:01.991Z,69.17
2019-01-10T12:01:02.004Z,68.96
2019-01-10T12:02:01.974Z,68.96
2019-01-10T12:03:01.964Z,68.44
2019-01-10T12:04:01.953Z,67.30
2019-01-10T12:05:01.959Z,68.26
2019-01-10T12:06:01.983Z,67.43
2019-01-10T12:07:01.918Z,67.43
2019-01-10T12:08:01.954Z,67.33
2019-01-10T12:09:01.913Z,68.37
2019-01-10T12:10:01.894Z,67.36
2019-01-10T12:11:01.920Z,68.60
2019-01-10T12:12:01.866Z,69.23
2019-01-10T12:13:01.856Z,69.74
2019-01-10T12:14:01.889Z,69.74
2019-01-10T12:15:01.839Z,69.85
2019-01-10T12:16:01.869Z,69.33
2019-01-10T12:17:01.828Z,68.91
2019-01-10T12:18:01.833Z,68.71
2019-01-10T12:19:01.793Z,68.60
2019-01-10T12:20:01.778Z,69.12
2019-01-10T12:21:01.796Z,69.54
2019-01-10T12:22:01.750Z,69.12
2019-01-10T12:23:01.760Z,69.23
2019-01-10T12:24:01.736Z,69.23
2019-01-10T12:25:01.716Z,69.09
2019-01-10T12:26:01.707Z,68.85
2019-01-10T12:27:01.725Z,68.68
2019-01-10T12:28:01.691Z,68.57
2019-01-10T12:29:01.673Z,68.78
2019-01-10T12:30:01.664Z,68.99
2019-01-10T12:31:01.656Z,67.33
2019-01-10T12:32:01.660Z,66.60
2019-01-10T12:33:01.637Z,67.43
2019-01-10T12:34:01.638Z,67.46
2019-01-10T12:35:01.608Z,67.43
2019-01-10T12:36:01.605Z,67.15
2019-01-10T12:37:01.600Z,67.67
2019-01-10T12:38:01.571Z,67.46
2019-01-10T12:39:03.517Z,67.88
2019-01-10T12:40:01.545Z,68.50
2019-01-10T12:41:01.555Z,68.43
2019-01-10T12:42:01.551Z,68.53
2019-01-10T12:43:01.512Z,68.53
2019-01-10T12:44:01.504Z,68.40
2019-01-10T12:45:01.500Z,68.71
2019-01-10T12:46:01.486Z,68.78
2019-01-10T12:47:01.783Z,67.54
2019-01-10T12:48:01.696Z,67.40
2019-01-10T12:49:01.452Z,67.40
2019-01-10T12:50:01.476Z,67.50
2019-01-10T12:51:01.427Z,67.40
2019-01-10T12:52:01.425Z,66.99